Strona główna
METAR-TAF:

METAR-TAF

Lotnisko :

Port lotniczy Ryga

Ryga, Łotwa

Szerokość geograficzna: 56-55N, Długość geograficzna: 023-58E, wysokość: 10 m

Aktualna obserwacja pogody

Raport powstał 28 minut temu, godzina 06:50 UTC
Wiatr 11 kt od zachód, zmienny między południowy zachód i północny zachód
Temperatura 17°C
Wilgotność 59%
Ciśnienie 1014 hPa
Widzialność 10 km lub więcej
Rozproszone chmury na wysokości 3500 ft

METAR: EVRA 200650Z 26011KT 220V320 9999 SCT035 17/09 Q1014 NOSIG

czas: 10:18 (07:18 UTC)

Prognoza

Raport powstał 2 godziny i 15 minut temu, godzina 05:03 UTC
Prognoza ważna od 20 godzina 06 UTC do 21 godzina 06 UTC
Wiatr 9 kt od zachodnio-południowy zachód
Widzialność 10 km lub więcej
Brak chmur poniżej 1500 m i brak chmur cumulonimbus
Przejściowo
od 20 godzina 06 UTC do 20 godzina 15 UTC
Wiatr 12 kt od zachód w porywach dochodzący do 25 kt

TAF: EVRA 200503Z 2006/2106 25009KT CAVOK TEMPO 2006/2015 26012G25KT

Obserwacja i prognoza pogody dla ponad 4000 lotnisk (raport METAR i TAF).

Dostępne stacje oznaczono żółtymi i czerwonymi punktami na mapie.

Najedź kursorem aby zobaczyć nazwę stacji.

Kliknij aby zobaczyć obserwacje i prognozy pogody.

Aby zmienić mapę: kliknij na zielony przycisk z czarnym krzyżykiem, aby powiększyć; na zielony przycisk z myślnikiem, aby pomniejszyć; na zielone strzałki, aby przejść do map sąsiednich.


METAR-TAF: